createdAt,value
2019-04-01T00:00:48.176Z,7.70
2019-04-01T00:03:17.705Z,7.59
2019-04-01T00:05:47.620Z,7.64
2019-04-01T00:08:17.089Z,7.63
2019-04-01T00:10:46.447Z,7.56
2019-04-01T00:13:15.910Z,7.59
2019-04-01T00:15:45.393Z,7.66
2019-04-01T00:18:14.856Z,7.53
2019-04-01T00:20:44.296Z,7.28
2019-04-01T00:23:13.171Z,7.16
2019-04-01T00:25:42.676Z,7.06
2019-04-01T00:28:11.511Z,7.06
2019-04-01T00:30:40.355Z,7.06
2019-04-01T00:33:09.174Z,7.13
2019-04-01T00:35:38.112Z,7.25
2019-04-01T00:38:06.971Z,7.22
2019-04-01T00:40:35.887Z,7.03
2019-04-01T00:43:12.577Z,7.06
2019-04-01T00:45:42.958Z,7.08
2019-04-01T00:48:12.536Z,6.97
2019-04-01T00:50:41.356Z,6.83
2019-04-01T00:53:10.794Z,6.77
2019-04-01T00:55:39.635Z,6.72
2019-04-01T00:58:08.473Z,6.65
2019-04-01T01:00:37.400Z,6.49
2019-04-01T01:03:06.276Z,6.37
2019-04-01T01:05:35.138Z,6.26
2019-04-01T01:08:04.015Z,6.25
2019-04-01T01:10:32.873Z,6.20
2019-04-01T01:13:01.812Z,6.23
2019-04-01T01:15:30.625Z,6.20
2019-04-01T01:17:59.460Z,6.28
2019-04-01T01:20:28.331Z,6.18
2019-04-01T01:22:57.129Z,6.18
2019-04-01T01:25:25.976Z,6.22
2019-04-01T01:27:55.613Z,6.14
2019-04-01T01:30:24.427Z,6.08
2019-04-01T01:32:53.310Z,6.07
2019-04-01T01:35:22.173Z,6.00
2019-04-01T01:37:50.971Z,6.02
2019-04-01T01:40:19.796Z,5.95
2019-04-01T01:42:48.644Z,6.04
2019-04-01T01:45:17.646Z,6.09
2019-04-01T01:47:46.496Z,6.03
2019-04-01T01:50:15.324Z,6.12
2019-04-01T01:52:44.231Z,6.09
2019-04-01T01:55:13.076Z,6.04
2019-04-01T01:57:41.850Z,6.07
2019-04-01T02:00:12.187Z,5.95
2019-04-01T02:02:41.029Z,6.03
2019-04-01T02:05:09.899Z,6.06
2019-04-01T02:07:38.766Z,6.03
2019-04-01T02:10:07.605Z,5.92
2019-04-01T02:12:36.407Z,5.76
2019-04-01T02:15:07.183Z,5.80
2019-04-01T02:17:36.034Z,5.86
2019-04-01T02:20:05.724Z,5.92
2019-04-01T02:22:34.565Z,5.73
2019-04-01T02:25:03.522Z,5.63
2019-04-01T02:27:32.426Z,5.66
2019-04-01T02:30:01.283Z,5.69
2019-04-01T02:32:30.114Z,5.73
2019-04-01T02:34:59.016Z,5.73
2019-04-01T02:37:28.004Z,5.82
2019-04-01T02:39:56.877Z,5.70
2019-04-01T02:42:25.690Z,5.60
2019-04-01T02:44:54.552Z,5.61
2019-04-01T02:47:23.434Z,5.74
2019-04-01T02:49:52.195Z,5.71
2019-04-01T02:52:21.049Z,5.66
2019-04-01T02:54:49.867Z,5.70
2019-04-01T02:57:18.633Z,5.71
2019-04-01T02:59:47.482Z,5.67
2019-04-01T03:02:16.331Z,5.72
2019-04-01T03:04:45.190Z,5.67
2019-04-01T03:07:14.059Z,5.56
2019-04-01T03:09:42.936Z,5.48
2019-04-01T03:12:11.785Z,5.48
2019-04-01T03:14:40.647Z,5.46
2019-04-01T03:17:09.489Z,5.34
2019-04-01T03:19:38.352Z,5.34
2019-04-01T03:22:07.214Z,5.34
2019-04-01T03:24:36.106Z,5.27
2019-04-01T03:27:04.945Z,5.26
2019-04-01T03:29:33.789Z,5.39
2019-04-01T03:32:02.631Z,5.35
2019-04-01T03:34:31.512Z,5.29
2019-04-01T03:37:00.278Z,5.22
2019-04-01T03:39:29.047Z,5.17
2019-04-01T03:41:57.888Z,5.14
2019-04-01T03:44:26.715Z,5.10
2019-04-01T03:46:55.607Z,5.10
2019-04-01T03:49:24.524Z,5.07
2019-04-01T03:51:53.345Z,5.18
2019-04-01T03:54:22.163Z,5.23
2019-04-01T03:56:51.035Z,5.17
2019-04-01T03:59:19.875Z,5.29
2019-04-01T04:01:48.694Z,5.26
2019-04-01T04:04:17.520Z,5.22
2019-04-01T04:06:46.420Z,5.04
2019-04-01T04:09:15.265Z,4.99
2019-04-01T04:11:44.117Z,4.94
2019-04-01T04:14:12.997Z,4.85
2019-04-01T04:16:41.815Z,4.83
2019-04-01T04:19:10.573Z,4.95
2019-04-01T04:21:39.409Z,4.85
2019-04-01T04:24:08.173Z,4.85
2019-04-01T04:26:37.052Z,5.07
2019-04-01T04:29:06.192Z,5.37
2019-04-01T04:31:35.032Z,5.65
2019-04-01T04:34:03.926Z,5.83
2019-04-01T04:36:32.710Z,5.74
2019-04-01T04:39:02.140Z,5.75
2019-04-01T04:41:30.935Z,6.02
2019-04-01T04:43:59.782Z,6.13
2019-04-01T04:46:29.234Z,6.21
2019-04-01T04:48:58.085Z,6.25
2019-04-01T04:51:26.933Z,6.15
2019-04-01T04:53:55.806Z,6.32
2019-04-01T04:56:24.639Z,6.37
2019-04-01T04:58:53.481Z,6.40
2019-04-01T05:01:22.325Z,6.46
2019-04-01T05:03:51.163Z,6.54
2019-04-01T05:06:20.067Z,6.56
2019-04-01T05:08:49.477Z,6.74
2019-04-01T05:11:18.906Z,6.97
2019-04-01T05:13:48.373Z,7.36
2019-04-01T05:16:17.755Z,7.62
2019-04-01T05:18:47.198Z,8.00
2019-04-01T05:21:19.022Z,8.18
2019-04-01T05:23:48.871Z,8.27
2019-04-01T05:26:20.066Z,8.54
2019-04-01T05:28:49.992Z,8.77
2019-04-01T05:31:21.867Z,8.88
2019-04-01T05:33:55.485Z,9.22
2019-04-01T05:36:25.857Z,9.49
2019-04-01T05:38:55.311Z,9.73
2019-04-01T05:41:24.684Z,9.79
2019-04-01T05:43:54.526Z,10.06
2019-04-01T05:46:24.004Z,10.29
2019-04-01T05:48:53.658Z,10.33
2019-04-01T05:51:23.032Z,10.24
2019-04-01T05:53:52.419Z,10.41
2019-04-01T05:56:21.849Z,10.47
2019-04-01T05:58:51.286Z,10.33
2019-04-01T06:01:22.319Z,10.61
2019-04-01T06:03:51.721Z,10.85
2019-04-01T06:06:21.273Z,10.94
2019-04-01T06:08:50.727Z,11.42
2019-04-01T06:11:20.129Z,11.43
2019-04-01T06:13:49.621Z,11.64
2019-04-01T06:16:19.162Z,12.10
2019-04-01T06:18:48.665Z,12.43
2019-04-01T06:21:18.172Z,12.87
2019-04-01T06:23:47.489Z,13.12
2019-04-01T06:26:16.944Z,12.99
2019-04-01T06:28:46.378Z,13.17
2019-04-01T06:31:22.283Z,13.57
2019-04-01T06:33:52.455Z,13.75
2019-04-01T06:36:31.985Z,13.93
2019-04-01T06:39:01.371Z,14.22
2019-04-01T06:41:32.250Z,14.06
2019-04-01T06:44:01.607Z,14.38
2019-04-01T06:46:31.247Z,14.66
2019-04-01T06:49:00.716Z,14.01
2019-04-01T06:51:30.153Z,14.17
2019-04-01T06:53:59.601Z,14.64
2019-04-01T06:56:29.030Z,15.17
2019-04-01T06:58:58.429Z,15.40
2019-04-01T07:01:28.150Z,15.27
2019-04-01T07:03:57.580Z,15.74
2019-04-01T07:06:26.943Z,15.87
2019-04-01T07:08:56.300Z,15.79
2019-04-01T07:11:25.875Z,15.67
2019-04-01T07:13:56.303Z,15.78
2019-04-01T07:16:25.730Z,15.71
2019-04-01T07:18:55.178Z,15.77
2019-04-01T07:21:32.160Z,15.88
2019-04-01T07:24:01.594Z,16.27
2019-04-01T07:26:31.271Z,16.33
2019-04-01T07:29:00.750Z,16.61
2019-04-01T07:31:30.280Z,16.78
2019-04-01T07:33:59.696Z,16.92
2019-04-01T07:36:29.185Z,16.96
2019-04-01T07:38:58.542Z,17.19
2019-04-01T07:41:28.030Z,17.59
2019-04-01T07:43:57.595Z,18.05
2019-04-01T07:46:27.045Z,17.53
2019-04-01T07:48:56.504Z,18.18
2019-04-01T07:51:26.114Z,17.88
2019-04-01T07:53:55.677Z,18.03
2019-04-01T07:56:25.159Z,18.69
2019-04-01T07:58:54.854Z,19.11
2019-04-01T08:01:24.289Z,18.83
2019-04-01T08:03:53.756Z,19.07
2019-04-01T08:06:23.211Z,18.66
2019-04-01T08:08:52.649Z,18.92
2019-04-01T08:11:22.106Z,18.29
2019-04-01T08:13:51.538Z,18.54
2019-04-01T08:16:20.989Z,19.11
2019-04-01T08:18:50.555Z,19.00
2019-04-01T08:21:19.947Z,19.26
2019-04-01T08:23:49.951Z,19.42
2019-04-01T08:26:19.493Z,19.81
2019-04-01T08:28:49.018Z,19.99
2019-04-01T08:31:18.866Z,20.03
2019-04-01T08:33:50.269Z,20.49
2019-04-01T08:36:19.937Z,20.73
2019-04-01T08:38:49.473Z,20.64
2019-04-01T08:41:18.855Z,20.91
2019-04-01T08:43:48.323Z,20.63
2019-04-01T08:46:17.736Z,21.00
2019-04-01T08:48:47.230Z,21.58
2019-04-01T08:51:16.670Z,21.57
2019-04-01T08:53:46.094Z,21.39
2019-04-01T08:56:15.476Z,21.80
2019-04-01T08:58:45.017Z,22.06
2019-04-01T09:01:14.437Z,21.91
2019-04-01T09:03:43.859Z,21.91
2019-04-01T09:06:13.444Z,22.17
2019-04-01T09:08:44.133Z,22.62
2019-04-01T09:11:13.705Z,22.79
2019-04-01T09:13:43.599Z,22.90
2019-04-01T09:16:13.062Z,22.89
2019-04-01T09:18:42.498Z,22.90
2019-04-01T09:21:11.848Z,22.90
2019-04-01T09:23:41.208Z,23.14
2019-04-01T09:26:10.613Z,23.31
2019-04-01T09:28:39.974Z,23.45
2019-04-01T09:31:09.401Z,23.45
2019-04-01T09:33:38.840Z,23.49
2019-04-01T09:36:08.213Z,23.57
2019-04-01T09:38:37.713Z,23.47
2019-04-01T09:41:07.203Z,23.47
2019-04-01T09:43:41.720Z,23.51
2019-04-01T09:46:11.162Z,23.34
2019-04-01T09:48:40.622Z,23.65
2019-04-01T09:51:10.071Z,24.00
2019-04-01T09:53:39.502Z,24.37
2019-04-01T09:56:08.932Z,24.37
2019-04-01T09:58:38.369Z,24.30
2019-04-01T10:01:07.813Z,24.30
2019-04-01T10:03:37.297Z,24.77
2019-04-01T10:06:10.204Z,24.68
2019-04-01T10:08:42.536Z,24.68
2019-04-01T10:11:08.511Z,25.26
2019-04-01T10:13:38.122Z,25.35
2019-04-01T10:16:07.163Z,25.56
2019-04-01T10:18:36.303Z,25.10
2019-04-01T10:21:05.453Z,25.26
2019-04-01T10:23:34.896Z,25.38
2019-04-01T10:26:04.075Z,25.23
2019-04-01T10:28:33.169Z,25.50
2019-04-01T10:31:03.830Z,25.50
2019-04-01T10:33:33.088Z,26.09
2019-04-01T10:36:02.212Z,25.75
2019-04-01T10:38:31.694Z,25.73
2019-04-01T10:41:00.897Z,25.90
2019-04-01T10:43:30.025Z,25.97
2019-04-01T10:45:59.251Z,25.74
2019-04-01T10:48:28.394Z,25.92
2019-04-01T10:50:57.565Z,26.13
2019-04-01T10:53:26.675Z,25.84
2019-04-01T10:55:55.845Z,26.13
2019-04-01T10:58:25.014Z,25.84
2019-04-01T11:00:54.256Z,25.45
2019-04-01T11:03:23.346Z,25.37
2019-04-01T11:05:52.583Z,25.71
2019-04-01T11:08:22.079Z,25.43
2019-04-01T11:10:51.198Z,25.52
2019-04-01T11:13:21.904Z,25.75
2019-04-01T11:15:51.363Z,25.92
2019-04-01T11:18:20.683Z,25.09
2019-04-01T11:20:50.012Z,25.09
2019-04-01T11:23:19.176Z,25.81
2019-04-01T11:25:48.319Z,26.19
2019-04-01T11:28:17.483Z,26.79
2019-04-01T11:30:46.608Z,25.82
2019-04-01T11:33:15.767Z,26.26
2019-04-01T11:35:45.909Z,26.80
2019-04-01T11:38:15.258Z,26.57
2019-04-01T11:40:44.389Z,26.61
2019-04-01T11:43:13.474Z,26.21
2019-04-01T11:45:42.787Z,25.67
2019-04-01T11:48:11.951Z,26.11
2019-04-01T11:50:41.103Z,26.76
2019-04-01T11:53:10.208Z,26.77
2019-04-01T11:55:39.282Z,26.90
2019-04-01T11:58:09.268Z,26.61
2019-04-01T12:00:38.520Z,27.14
2019-04-01T12:03:07.662Z,26.49
2019-04-01T12:05:37.185Z,27.23
2019-04-01T12:08:06.307Z,27.41
2019-04-01T12:10:35.441Z,27.60
2019-04-01T12:13:04.577Z,27.80
2019-04-01T12:15:33.681Z,27.73
2019-04-01T12:18:02.833Z,27.12
2019-04-01T12:20:31.929Z,26.54
2019-04-01T12:23:01.076Z,25.77
2019-04-01T12:25:30.233Z,26.90
2019-04-01T12:27:59.275Z,27.34
2019-04-01T12:30:28.469Z,26.11
2019-04-01T12:32:57.629Z,26.71
2019-04-01T12:35:26.745Z,26.69
2019-04-01T12:37:55.975Z,26.41
2019-04-01T12:40:25.347Z,26.97
2019-04-01T12:42:54.654Z,27.27
2019-04-01T12:45:24.357Z,27.26
2019-04-01T12:47:53.488Z,27.04
2019-04-01T12:50:22.717Z,27.33
2019-04-01T12:52:51.935Z,27.24
2019-04-01T12:55:21.128Z,27.79
2019-04-01T12:57:51.010Z,27.99
2019-04-01T13:00:22.250Z,27.34
2019-04-01T13:02:51.626Z,26.10
2019-04-01T13:05:20.670Z,26.34
2019-04-01T13:07:50.033Z,26.56
2019-04-01T13:10:21.042Z,26.72
2019-04-01T13:12:51.140Z,26.56
2019-04-01T13:15:20.951Z,26.83
2019-04-01T13:17:50.321Z,27.34
2019-04-01T13:20:19.667Z,26.76
2019-04-01T13:22:48.810Z,26.83
2019-04-01T13:25:17.888Z,26.48
2019-04-01T13:27:46.968Z,27.01
2019-04-01T13:30:16.254Z,26.14
2019-04-01T13:32:45.436Z,26.67
2019-04-01T13:35:14.578Z,27.05
2019-04-01T13:37:43.729Z,26.76
2019-04-01T13:40:13.595Z,26.16
2019-04-01T13:42:44.559Z,26.05
2019-04-01T13:45:14.026Z,26.00
2019-04-01T13:47:43.126Z,26.46
2019-04-01T13:50:16.075Z,26.06
2019-04-01T13:52:43.459Z,25.86
2019-04-01T13:55:12.583Z,26.31
2019-04-01T13:57:42.020Z,26.10
2019-04-01T14:00:11.935Z,26.10
2019-04-01T14:02:41.158Z,26.40
2019-04-01T14:05:10.585Z,25.87
2019-04-01T14:07:39.792Z,26.28
2019-04-01T14:10:09.137Z,25.88
2019-04-01T14:12:38.362Z,26.37
2019-04-01T14:15:08.705Z,26.37
2019-04-01T14:17:37.955Z,26.45
2019-04-01T14:20:07.207Z,25.88
2019-04-01T14:22:36.529Z,25.89
2019-04-01T14:25:07.708Z,26.07
2019-04-01T14:27:39.339Z,26.35
2019-04-01T14:30:09.552Z,26.35
2019-04-01T14:32:38.726Z,25.79
2019-04-01T14:35:08.168Z,25.60
2019-04-01T14:37:37.344Z,25.58
2019-04-01T14:40:08.794Z,25.69
2019-04-01T14:42:39.637Z,25.69
2019-04-01T14:45:09.455Z,25.21
2019-04-01T14:47:55.650Z,25.73
2019-04-01T14:50:09.806Z,25.54
2019-04-01T14:52:38.993Z,25.54
2019-04-01T14:55:08.194Z,25.46
2019-04-01T14:57:37.628Z,25.42
2019-04-01T15:00:10.111Z,25.52
2019-04-01T15:02:39.569Z,24.67
2019-04-01T15:05:09.330Z,24.67
2019-04-01T15:07:38.681Z,24.33
2019-04-01T15:10:08.318Z,24.63
2019-04-01T15:12:37.767Z,24.63
2019-04-01T15:15:08.971Z,24.22
2019-04-01T15:17:38.408Z,24.22
2019-04-01T15:20:09.046Z,24.16
2019-04-01T15:22:38.680Z,24.06
2019-04-01T15:25:08.363Z,23.67
2019-04-01T15:27:37.771Z,23.63
2019-04-01T15:30:09.014Z,23.65
2019-04-01T15:32:38.453Z,23.65
2019-04-01T15:35:08.638Z,23.83
2019-04-01T15:37:38.297Z,24.06
2019-04-01T15:40:08.395Z,24.06
2019-04-01T15:42:37.817Z,23.71
2019-04-01T15:45:07.298Z,23.56
2019-04-01T15:47:38.265Z,23.30
2019-04-01T15:50:09.395Z,22.99
2019-04-01T15:52:39.113Z,22.93
2019-04-01T15:55:08.554Z,22.67
2019-04-01T15:57:38.075Z,22.31
2019-04-01T16:00:07.914Z,21.83
2019-04-01T16:02:37.389Z,21.66
2019-04-01T16:05:08.805Z,21.49
2019-04-01T16:07:41.572Z,21.20
2019-04-01T16:10:09.498Z,20.96
2019-04-01T16:12:38.932Z,20.96
2019-04-01T16:15:09.208Z,20.85
2019-04-01T16:17:39.067Z,20.65
2019-04-01T16:20:08.607Z,20.60
2019-04-01T16:22:38.227Z,20.45
2019-04-01T16:25:08.641Z,20.33
2019-04-01T16:27:38.175Z,20.21
2019-04-01T16:30:09.872Z,20.04
2019-04-01T16:32:39.322Z,19.95
2019-04-01T16:35:08.936Z,19.74
2019-04-01T16:37:38.383Z,19.54
2019-04-01T16:40:07.944Z,19.41
2019-04-01T16:42:37.309Z,19.32
2019-04-01T16:45:08.644Z,19.17
2019-04-01T16:47:38.112Z,19.03
2019-04-01T16:50:08.503Z,18.95
2019-04-01T16:52:38.653Z,18.80
2019-04-01T16:55:08.877Z,18.66
2019-04-01T16:57:38.372Z,18.59
2019-04-01T17:00:09.523Z,18.53
2019-04-01T17:02:39.065Z,18.43
2019-04-01T17:05:08.980Z,18.33
2019-04-01T17:07:38.858Z,18.23
2019-04-01T17:10:08.860Z,18.16
2019-04-01T17:12:38.327Z,18.09
2019-04-01T17:15:08.387Z,18.03
2019-04-01T17:17:37.797Z,17.93
2019-04-01T17:20:07.592Z,17.82
2019-04-01T17:22:37.167Z,17.73
2019-04-01T17:25:07.976Z,17.64
2019-04-01T17:27:37.470Z,17.58
2019-04-01T17:30:12.049Z,17.41
2019-04-01T17:32:41.447Z,17.35
2019-04-01T17:35:10.905Z,17.25
2019-04-01T17:37:40.410Z,17.26
2019-04-01T17:40:10.206Z,17.19
2019-04-01T17:42:39.791Z,17.10
2019-04-01T17:45:23.936Z,17.04
2019-04-01T17:47:53.364Z,16.92
2019-04-01T17:50:22.975Z,16.82
2019-04-01T17:52:53.791Z,16.80
2019-04-01T17:55:23.517Z,16.76
2019-04-01T17:57:52.975Z,16.71
2019-04-01T18:00:24.852Z,16.66
2019-04-01T18:02:54.424Z,16.61
2019-04-01T18:05:24.271Z,16.49
2019-04-01T18:07:53.714Z,16.42
2019-04-01T18:10:23.349Z,16.34
2019-04-01T18:12:52.993Z,16.20
2019-04-01T18:15:22.697Z,16.08
2019-04-01T18:17:52.238Z,15.96
2019-04-01T18:20:21.707Z,15.94
2019-04-01T18:22:51.154Z,15.85
2019-04-01T18:25:21.190Z,15.82
2019-04-01T18:27:51.035Z,15.79
2019-04-01T18:30:20.787Z,15.79
2019-04-01T18:32:53.518Z,15.74
2019-04-01T18:35:21.845Z,15.72
2019-04-01T18:37:51.343Z,15.59
2019-04-01T18:40:31.889Z,15.48
2019-04-01T18:42:52.122Z,15.44
2019-04-01T18:45:22.359Z,15.34
2019-04-01T18:47:53.160Z,15.34
2019-04-01T18:50:22.930Z,15.28
2019-04-01T18:52:52.406Z,15.38
2019-04-01T18:55:21.873Z,15.51
2019-04-01T18:57:51.372Z,15.56
2019-04-01T19:00:21.096Z,15.59
2019-04-01T19:02:50.593Z,15.72
2019-04-01T19:05:20.121Z,15.70
2019-04-01T19:07:49.594Z,15.68
2019-04-01T19:10:19.365Z,15.69
2019-04-01T19:12:48.804Z,15.68
2019-04-01T19:15:20.172Z,15.62
2019-04-01T19:17:49.617Z,15.57
2019-04-01T19:20:19.120Z,15.48
2019-04-01T19:22:49.712Z,15.45
2019-04-01T19:25:19.257Z,15.36
2019-04-01T19:27:49.225Z,15.36
2019-04-01T19:30:19.759Z,15.35
2019-04-01T19:32:49.202Z,15.28
2019-04-01T19:35:18.705Z,15.25
2019-04-01T19:37:48.225Z,15.20
2019-04-01T19:40:20.578Z,15.10
2019-04-01T19:42:49.690Z,15.10
2019-04-01T19:45:19.149Z,15.10
2019-04-01T19:47:48.586Z,15.03
2019-04-01T19:50:19.438Z,14.89
2019-04-01T19:52:48.935Z,14.85
2019-04-01T19:55:18.419Z,14.89
2019-04-01T19:57:47.993Z,14.71
2019-04-01T20:00:27.582Z,14.65
2019-04-01T20:02:51.008Z,14.59
2019-04-01T20:05:21.873Z,14.49
2019-04-01T20:07:51.453Z,14.37
2019-04-01T20:10:21.062Z,14.37
2019-04-01T20:12:50.891Z,14.17
2019-04-01T20:15:21.588Z,14.07
2019-04-01T20:17:51.115Z,13.96
2019-04-01T20:20:20.703Z,13.82
2019-04-01T20:22:50.137Z,13.72
2019-04-01T20:25:19.628Z,13.72
2019-04-01T20:27:49.059Z,13.67
2019-04-01T20:30:18.790Z,13.53
2019-04-01T20:32:49.013Z,13.48
2019-04-01T20:35:23.745Z,13.34
2019-04-01T20:37:49.967Z,13.19
2019-04-01T20:40:19.730Z,13.13
2019-04-01T20:42:49.500Z,13.01
2019-04-01T20:45:18.913Z,12.98
2019-04-01T20:47:50.331Z,12.99
2019-04-01T20:50:19.959Z,12.97
2019-04-01T20:52:50.581Z,12.98
2019-04-01T20:55:20.346Z,13.00
2019-04-01T20:57:49.818Z,12.95
2019-04-01T21:00:20.175Z,12.97
2019-04-01T21:02:49.621Z,12.99
2019-04-01T21:05:19.026Z,12.87
2019-04-01T21:07:48.633Z,12.88
2019-04-01T21:10:18.416Z,12.84
2019-04-01T21:12:47.919Z,12.83
2019-04-01T21:15:18.256Z,12.69
2019-04-01T21:17:47.830Z,12.56
2019-04-01T21:20:17.456Z,12.47
2019-04-01T21:22:46.856Z,12.52
2019-04-01T21:25:16.294Z,12.49
2019-04-01T21:27:45.793Z,12.50
2019-04-01T21:30:15.743Z,12.44
2019-04-01T21:32:45.384Z,12.39
2019-04-01T21:35:15.235Z,12.34
2019-04-01T21:37:44.732Z,12.42
2019-04-01T21:40:14.511Z,12.38
2019-04-01T21:42:43.862Z,12.30
2019-04-01T21:45:13.704Z,12.26
2019-04-01T21:47:43.151Z,12.22
2019-04-01T21:50:12.931Z,12.29
2019-04-01T21:52:42.408Z,12.21
2019-04-01T21:55:11.920Z,12.18
2019-04-01T21:57:41.370Z,12.08
2019-04-01T22:00:17.809Z,11.98
2019-04-01T22:02:46.502Z,11.97
2019-04-01T22:05:16.280Z,11.93
2019-04-01T22:07:45.797Z,11.82
2019-04-01T22:10:15.354Z,11.78
2019-04-01T22:12:44.968Z,11.78
2019-04-01T22:15:14.410Z,11.72
2019-04-01T22:17:43.787Z,11.74
2019-04-01T22:20:13.295Z,11.83
2019-04-01T22:22:42.721Z,11.83
2019-04-01T22:25:12.226Z,11.85
2019-04-01T22:27:41.623Z,11.83
2019-04-01T22:30:11.744Z,11.81
2019-04-01T22:32:42.098Z,11.65
2019-04-01T22:35:11.679Z,11.49
2019-04-01T22:37:41.102Z,11.44
2019-04-01T22:40:10.673Z,11.51
2019-04-01T22:42:40.112Z,11.51
2019-04-01T22:45:09.884Z,11.41
2019-04-01T22:47:39.330Z,11.37
2019-04-01T22:50:10.143Z,11.35
2019-04-01T22:52:42.059Z,11.28
2019-04-01T22:55:11.189Z,11.21
2019-04-01T22:57:40.652Z,11.10
2019-04-01T23:00:11.147Z,10.99
2019-04-01T23:02:42.232Z,11.03
2019-04-01T23:05:11.815Z,10.87
2019-04-01T23:07:41.269Z,10.76
2019-04-01T23:10:10.779Z,10.70
2019-04-01T23:12:40.271Z,10.70
2019-04-01T23:15:09.922Z,10.63
2019-04-01T23:17:39.369Z,10.61
2019-04-01T23:20:09.022Z,10.69
2019-04-01T23:22:38.477Z,10.61
2019-04-01T23:25:07.965Z,10.61
2019-04-01T23:27:37.367Z,10.49
2019-04-01T23:30:09.468Z,10.46
2019-04-01T23:32:41.650Z,10.39
2019-04-01T23:35:09.998Z,10.40
2019-04-01T23:37:39.465Z,10.36
2019-04-01T23:40:09.311Z,10.31
2019-04-01T23:42:38.833Z,10.21
2019-04-01T23:45:08.890Z,10.13
2019-04-01T23:47:38.432Z,10.03
2019-04-01T23:50:09.643Z,10.00
2019-04-01T23:52:39.325Z,9.91
2019-04-01T23:55:08.766Z,9.87
2019-04-01T23:57:38.279Z,9.84
